sensor_id;sensor_type;location;lat;lon;timestamp;temperature;humidity
26595;DHT22;14238;49.496;8.154;2023-11-21T00:02:20;8.80;99.90
26595;DHT22;14238;49.496;8.154;2023-11-21T00:04:45;8.80;99.90
26595;DHT22;14238;49.496;8.154;2023-11-21T00:07:12;8.70;99.90
26595;DHT22;14238;49.496;8.154;2023-11-21T00:09:37;8.70;99.90
26595;DHT22;14238;49.496;8.154;2023-11-21T00:12:03;8.70;99.90
26595;DHT22;14238;49.496;8.154;2023-11-21T00:14:29;8.70;99.90
26595;DHT22;14238;49.496;8.154;2023-11-21T00:16:55;8.70;99.90
26595;DHT22;14238;49.496;8.154;2023-11-21T00:19:20;8.80;99.90
26595;DHT22;14238;49.496;8.154;2023-11-21T00:21:46;8.80;99.90
26595;DHT22;14238;49.496;8.154;2023-11-21T00:24:12;8.70;99.90
26595;DHT22;14238;49.496;8.154;2023-11-21T00:26:39;8.80;99.90
26595;DHT22;14238;49.496;8.154;2023-11-21T00:29:05;8.80;99.90
26595;DHT22;14238;49.496;8.154;2023-11-21T00:31:36;8.80;99.90
26595;DHT22;14238;49.496;8.154;2023-11-21T00:34:05;8.80;99.90
26595;DHT22;14238;49.496;8.154;2023-11-21T00:36:34;8.70;99.90
26595;DHT22;14238;49.496;8.154;2023-11-21T00:38:59;8.70;99.90
26595;DHT22;14238;49.496;8.154;2023-11-21T00:41:25;8.70;99.90
26595;DHT22;14238;49.496;8.154;2023-11-21T00:43:54;8.70;99.90
26595;DHT22;14238;49.496;8.154;2023-11-21T00:46:20;8.70;99.90
26595;DHT22;14238;49.496;8.154;2023-11-21T00:48:46;8.70;99.90
26595;DHT22;14238;49.496;8.154;2023-11-21T00:51:11;8.60;99.90
26595;DHT22;14238;49.496;8.154;2023-11-21T00:53:37;8.60;99.90
26595;DHT22;14238;49.496;8.154;2023-11-21T00:56:02;8.70;99.90
26595;DHT22;14238;49.496;8.154;2023-11-21T00:58:28;8.60;99.90
26595;DHT22;14238;49.496;8.154;2023-11-21T01:00:54;8.60;99.90
26595;DHT22;14238;49.496;8.154;2023-11-21T01:03:19;8.60;99.90
26595;DHT22;14238;49.496;8.154;2023-11-21T01:05:45;8.50;99.90
26595;DHT22;14238;49.496;8.154;2023-11-21T01:08:11;8.50;99.90
26595;DHT22;14238;49.496;8.154;2023-11-21T01:10:37;8.60;99.90
26595;DHT22;14238;49.496;8.154;2023-11-21T01:13:03;8.60;99.90
26595;DHT22;14238;49.496;8.154;2023-11-21T01:15:35;8.60;99.90
26595;DHT22;14238;49.496;8.154;2023-11-21T01:18:00;8.60;99.90
26595;DHT22;14238;49.496;8.154;2023-11-21T01:20:26;8.60;99.90
26595;DHT22;14238;49.496;8.154;2023-11-21T01:22:52;8.70;99.90
26595;DHT22;14238;49.496;8.154;2023-11-21T01:25:19;8.70;99.90
26595;DHT22;14238;49.496;8.154;2023-11-21T01:27:46;8.80;99.90
26595;DHT22;14238;49.496;8.154;2023-11-21T01:30:12;8.70;99.90
26595;DHT22;14238;49.496;8.154;2023-11-21T01:32:38;8.80;99.90
26595;DHT22;14238;49.496;8.154;2023-11-21T01:35:05;8.80;99.90
26595;DHT22;14238;49.496;8.154;2023-11-21T01:37:32;8.80;99.90
26595;DHT22;14238;49.496;8.154;2023-11-21T01:39:58;8.80;99.90
26595;DHT22;14238;49.496;8.154;2023-11-21T01:42:24;8.70;99.90
26595;DHT22;14238;49.496;8.154;2023-11-21T01:44:50;8.80;99.90
26595;DHT22;14238;49.496;8.154;2023-11-21T01:47:16;8.90;99.90
26595;DHT22;14238;49.496;8.154;2023-11-21T01:49:44;8.90;99.90
26595;DHT22;14238;49.496;8.154;2023-11-21T01:52:10;8.80;99.90
26595;DHT22;14238;49.496;8.154;2023-11-21T01:54:37;8.80;99.90
26595;DHT22;14238;49.496;8.154;2023-11-21T01:57:04;8.60;99.90
26595;DHT22;14238;49.496;8.154;2023-11-21T01:59:35;8.60;99.90
26595;DHT22;14238;49.496;8.154;2023-11-21T02:02:08;8.60;99.90
26595;DHT22;14238;49.496;8.154;2023-11-21T02:04:35;8.50;99.90
26595;DHT22;14238;49.496;8.154;2023-11-21T02:07:02;8.50;99.90
26595;DHT22;14238;49.496;8.154;2023-11-21T02:09:31;8.50;99.90
26595;DHT22;14238;49.496;8.154;2023-11-21T02:11:58;8.30;99.90
26595;DHT22;14238;49.496;8.154;2023-11-21T02:14:25;8.30;99.90
26595;DHT22;14238;49.496;8.154;2023-11-21T02:16:52;8.20;99.90
26595;DHT22;14238;49.496;8.154;2023-11-21T02:19:19;8.20;99.90
26595;DHT22;14238;49.496;8.154;2023-11-21T02:21:51;8.10;99.90
26595;DHT22;14238;49.496;8.154;2023-11-21T02:24:19;8.00;99.90
26595;DHT22;14238;49.496;8.154;2023-11-21T02:26:45;8.00;99.90
26595;DHT22;14238;49.496;8.154;2023-11-21T02:29:11;8.00;99.90
26595;DHT22;14238;49.496;8.154;2023-11-21T02:31:37;8.00;99.90
26595;DHT22;14238;49.496;8.154;2023-11-21T02:34:11;8.10;99.90
26595;DHT22;14238;49.496;8.154;2023-11-21T02:36:38;8.10;99.90
26595;DHT22;14238;49.496;8.154;2023-11-21T02:39:04;8.10;99.90
26595;DHT22;14238;49.496;8.154;2023-11-21T02:41:30;8.20;99.90
26595;DHT22;14238;49.496;8.154;2023-11-21T02:43:55;8.20;99.90
26595;DHT22;14238;49.496;8.154;2023-11-21T02:46:21;8.20;99.90
26595;DHT22;14238;49.496;8.154;2023-11-21T02:48:47;8.20;99.90
26595;DHT22;14238;49.496;8.154;2023-11-21T02:51:12;8.10;99.90
26595;DHT22;14238;49.496;8.154;2023-11-21T02:53:38;8.10;99.90
26595;DHT22;14238;49.496;8.154;2023-11-21T02:56:04;8.20;99.90
26595;DHT22;14238;49.496;8.154;2023-11-21T02:58:30;8.20;99.90
26595;DHT22;14238;49.496;8.154;2023-11-21T03:00:55;8.20;99.90
26595;DHT22;14238;49.496;8.154;2023-11-21T03:03:21;8.20;99.90
26595;DHT22;14238;49.496;8.154;2023-11-21T03:05:49;8.30;99.90
26595;DHT22;14238;49.496;8.154;2023-11-21T03:08:15;8.30;99.90
26595;DHT22;14238;49.496;8.154;2023-11-21T03:10:41;8.30;99.90
26595;DHT22;14238;49.496;8.154;2023-11-21T03:13:06;8.40;99.90
26595;DHT22;14238;49.496;8.154;2023-11-21T03:15:32;8.50;99.90
26595;DHT22;14238;49.496;8.154;2023-11-21T03:17:58;8.60;99.90
26595;DHT22;14238;49.496;8.154;2023-11-21T03:20:24;8.60;99.90
26595;DHT22;14238;49.496;8.154;2023-11-21T03:22:49;8.70;99.90
26595;DHT22;14238;49.496;8.154;2023-11-21T03:25:15;8.70;99.90
26595;DHT22;14238;49.496;8.154;2023-11-21T03:27:42;8.70;99.90
26595;DHT22;14238;49.496;8.154;2023-11-21T03:30:10;8.60;99.90
26595;DHT22;14238;49.496;8.154;2023-11-21T03:32:36;8.60;99.90
26595;DHT22;14238;49.496;8.154;2023-11-21T03:35:02;8.60;99.90
26595;DHT22;14238;49.496;8.154;2023-11-21T03:37:28;8.70;99.90
26595;DHT22;14238;49.496;8.154;2023-11-21T03:39:55;8.70;99.90
26595;DHT22;14238;49.496;8.154;2023-11-21T03:42:21;8.70;99.90
26595;DHT22;14238;49.496;8.154;2023-11-21T03:44:47;8.70;99.90
26595;DHT22;14238;49.496;8.154;2023-11-21T03:47:12;8.70;99.90
26595;DHT22;14238;49.496;8.154;2023-11-21T03:49:38;8.70;99.90
26595;DHT22;14238;49.496;8.154;2023-11-21T03:52:03;8.60;99.90
26595;DHT22;14238;49.496;8.154;2023-11-21T03:54:29;8.70;99.90
26595;DHT22;14238;49.496;8.154;2023-11-21T03:56:55;8.70;99.90
26595;DHT22;14238;49.496;8.154;2023-11-21T03:59:20;8.60;99.90
26595;DHT22;14238;49.496;8.154;2023-11-21T04:01:46;8.60;99.90
26595;DHT22;14238;49.496;8.154;2023-11-21T04:04:11;8.60;99.90
26595;DHT22;14238;49.496;8.154;2023-11-21T04:06:37;8.60;99.90
26595;DHT22;14238;49.496;8.154;2023-11-21T04:09:03;8.60;99.90
26595;DHT22;14238;49.496;8.154;2023-11-21T04:11:30;8.50;99.90
26595;DHT22;14238;49.496;8.154;2023-11-21T04:13:55;8.50;99.90
26595;DHT22;14238;49.496;8.154;2023-11-21T04:16:21;8.50;99.90
26595;DHT22;14238;49.496;8.154;2023-11-21T04:18:46;8.50;99.90
26595;DHT22;14238;49.496;8.154;2023-11-21T04:21:12;8.50;99.90
26595;DHT22;14238;49.496;8.154;2023-11-21T04:23:37;8.50;99.90
26595;DHT22;14238;49.496;8.154;2023-11-21T04:26:03;8.50;99.90
26595;DHT22;14238;49.496;8.154;2023-11-21T04:28:28;8.50;99.90
26595;DHT22;14238;49.496;8.154;2023-11-21T04:30:54;8.50;99.90
26595;DHT22;14238;49.496;8.154;2023-11-21T04:33:20;8.50;99.90
26595;DHT22;14238;49.496;8.154;2023-11-21T04:35:46;8.40;99.90
26595;DHT22;14238;49.496;8.154;2023-11-21T04:38:12;8.40;99.90
26595;DHT22;14238;49.496;8.154;2023-11-21T04:40:37;8.30;99.90
26595;DHT22;14238;49.496;8.154;2023-11-21T04:43:03;8.40;99.90
26595;DHT22;14238;49.496;8.154;2023-11-21T04:45:29;8.50;99.90
26595;DHT22;14238;49.496;8.154;2023-11-21T04:47:55;8.50;99.90
26595;DHT22;14238;49.496;8.154;2023-11-21T04:50:21;8.60;99.90
26595;DHT22;14238;49.496;8.154;2023-11-21T04:52:47;8.50;99.90
26595;DHT22;14238;49.496;8.154;2023-11-21T04:55:12;8.50;99.90
26595;DHT22;14238;49.496;8.154;2023-11-21T04:57:39;8.50;99.90
26595;DHT22;14238;49.496;8.154;2023-11-21T05:00:09;8.50;99.90
26595;DHT22;14238;49.496;8.154;2023-11-21T05:02:35;8.60;99.90
26595;DHT22;14238;49.496;8.154;2023-11-21T05:05:03;8.60;99.90
26595;DHT22;14238;49.496;8.154;2023-11-21T05:07:32;8.60;99.90
26595;DHT22;14238;49.496;8.154;2023-11-21T05:09:57;8.60;99.90
26595;DHT22;14238;49.496;8.154;2023-11-21T05:12:24;8.60;99.90
26595;DHT22;14238;49.496;8.154;2023-11-21T05:14:50;8.60;99.90
26595;DHT22;14238;49.496;8.154;2023-11-21T05:17:16;8.50;99.90
26595;DHT22;14238;49.496;8.154;2023-11-21T05:19:41;8.60;99.90
26595;DHT22;14238;49.496;8.154;2023-11-21T05:22:08;8.60;99.90
26595;DHT22;14238;49.496;8.154;2023-11-21T05:24:34;8.60;99.90
26595;DHT22;14238;49.496;8.154;2023-11-21T05:27:00;8.50;99.90
26595;DHT22;14238;49.496;8.154;2023-11-21T05:29:25;8.50;99.90
26595;DHT22;14238;49.496;8.154;2023-11-21T05:31:51;8.50;99.90
26595;DHT22;14238;49.496;8.154;2023-11-21T05:34:18;8.50;99.90
26595;DHT22;14238;49.496;8.154;2023-11-21T05:36:44;8.50;99.90
26595;DHT22;14238;49.496;8.154;2023-11-21T05:39:11;8.50;99.90
26595;DHT22;14238;49.496;8.154;2023-11-21T05:41:36;8.50;99.90
26595;DHT22;14238;49.496;8.154;2023-11-21T05:44:02;8.50;99.90
26595;DHT22;14238;49.496;8.154;2023-11-21T05:46:28;8.50;99.90
26595;DHT22;14238;49.496;8.154;2023-11-21T05:48:53;8.50;99.90
26595;DHT22;14238;49.496;8.154;2023-11-21T05:51:19;8.50;99.90
26595;DHT22;14238;49.496;8.154;2023-11-21T05:53:44;8.50;99.90
26595;DHT22;14238;49.496;8.154;2023-11-21T05:56:10;8.50;99.90
26595;DHT22;14238;49.496;8.154;2023-11-21T05:58:36;8.50;99.90
26595;DHT22;14238;49.496;8.154;2023-11-21T06:01:01;8.50;99.90
26595;DHT22;14238;49.496;8.154;2023-11-21T06:03:28;8.50;99.90
26595;DHT22;14238;49.496;8.154;2023-11-21T06:05:53;8.40;99.90
26595;DHT22;14238;49.496;8.154;2023-11-21T06:08:19;8.40;99.90
26595;DHT22;14238;49.496;8.154;2023-11-21T06:10:45;8.50;99.90
26595;DHT22;14238;49.496;8.154;2023-11-21T06:13:10;8.50;99.90
26595;DHT22;14238;49.496;8.154;2023-11-21T06:15:36;8.40;99.90
26595;DHT22;14238;49.496;8.154;2023-11-21T06:18:01;8.40;99.90
26595;DHT22;14238;49.496;8.154;2023-11-21T06:20:27;8.50;99.90
26595;DHT22;14238;49.496;8.154;2023-11-21T06:22:53;8.50;99.90
26595;DHT22;14238;49.496;8.154;2023-11-21T06:25:19;8.40;99.90
26595;DHT22;14238;49.496;8.154;2023-11-21T06:27:46;8.40;99.90
26595;DHT22;14238;49.496;8.154;2023-11-21T06:30:15;8.40;99.90
26595;DHT22;14238;49.496;8.154;2023-11-21T06:32:43;8.40;99.90
26595;DHT22;14238;49.496;8.154;2023-11-21T06:35:11;8.40;99.90
26595;DHT22;14238;49.496;8.154;2023-11-21T06:37:38;8.40;99.90
26595;DHT22;14238;49.496;8.154;2023-11-21T06:40:04;8.40;99.90
26595;DHT22;14238;49.496;8.154;2023-11-21T06:42:30;8.40;99.90
26595;DHT22;14238;49.496;8.154;2023-11-21T06:44:56;8.40;99.90
26595;DHT22;14238;49.496;8.154;2023-11-21T06:47:23;8.40;99.90
26595;DHT22;14238;49.496;8.154;2023-11-21T06:49:52;8.40;99.90
26595;DHT22;14238;49.496;8.154;2023-11-21T06:52:21;8.40;99.90
26595;DHT22;14238;49.496;8.154;2023-11-21T06:54:47;8.40;99.90
26595;DHT22;14238;49.496;8.154;2023-11-21T06:57:14;8.40;99.90
26595;DHT22;14238;49.496;8.154;2023-11-21T06:59:40;8.40;99.90
26595;DHT22;14238;49.496;8.154;2023-11-21T07:02:06;8.40;99.90
26595;DHT22;14238;49.496;8.154;2023-11-21T07:04:35;8.40;99.90
26595;DHT22;14238;49.496;8.154;2023-11-21T07:07:04;8.40;99.90
26595;DHT22;14238;49.496;8.154;2023-11-21T07:09:32;8.30;99.90
26595;DHT22;14238;49.496;8.154;2023-11-21T07:11:57;8.40;99.90
26595;DHT22;14238;49.496;8.154;2023-11-21T07:14:23;8.40;99.90
26595;DHT22;14238;49.496;8.154;2023-11-21T07:16:49;8.40;99.90
26595;DHT22;14238;49.496;8.154;2023-11-21T07:19:14;8.40;99.90
26595;DHT22;14238;49.496;8.154;2023-11-21T07:21:40;8.40;99.90
26595;DHT22;14238;49.496;8.154;2023-11-21T07:24:07;8.40;99.90
26595;DHT22;14238;49.496;8.154;2023-11-21T07:26:34;8.40;99.90
26595;DHT22;14238;49.496;8.154;2023-11-21T07:29:02;8.50;99.90
26595;DHT22;14238;49.496;8.154;2023-11-21T07:31:28;8.50;99.90
26595;DHT22;14238;49.496;8.154;2023-11-21T07:33:56;8.40;99.90
26595;DHT22;14238;49.496;8.154;2023-11-21T07:36:23;8.40;99.90
26595;DHT22;14238;49.496;8.154;2023-11-21T07:38:49;8.50;99.90
26595;DHT22;14238;49.496;8.154;2023-11-21T07:41:15;8.40;99.90
26595;DHT22;14238;49.496;8.154;2023-11-21T07:43:44;8.40;99.90
26595;DHT22;14238;49.496;8.154;2023-11-21T07:46:10;8.40;99.90
26595;DHT22;14238;49.496;8.154;2023-11-21T07:48:41;8.40;99.90
26595;DHT22;14238;49.496;8.154;2023-11-21T07:51:08;8.50;99.90
26595;DHT22;14238;49.496;8.154;2023-11-21T07:53:34;8.50;99.90
26595;DHT22;14238;49.496;8.154;2023-11-21T07:56:04;8.50;99.90
26595;DHT22;14238;49.496;8.154;2023-11-21T07:58:30;8.60;99.90
26595;DHT22;14238;49.496;8.154;2023-11-21T08:00:59;8.50;99.90
26595;DHT22;14238;49.496;8.154;2023-11-21T08:03:24;8.60;99.90
26595;DHT22;14238;49.496;8.154;2023-11-21T08:05:52;8.70;99.90
26595;DHT22;14238;49.496;8.154;2023-11-21T08:08:17;8.70;99.90
26595;DHT22;14238;49.496;8.154;2023-11-21T08:10:44;8.70;99.90
26595;DHT22;14238;49.496;8.154;2023-11-21T08:13:13;8.70;99.90
26595;DHT22;14238;49.496;8.154;2023-11-21T08:15:41;8.70;99.90
26595;DHT22;14238;49.496;8.154;2023-11-21T08:18:10;8.70;99.90
26595;DHT22;14238;49.496;8.154;2023-11-21T08:20:36;8.70;99.90
26595;DHT22;14238;49.496;8.154;2023-11-21T08:23:03;8.80;99.90
26595;DHT22;14238;49.496;8.154;2023-11-21T08:25:31;8.70;99.90
26595;DHT22;14238;49.496;8.154;2023-11-21T08:27:57;8.70;99.90
26595;DHT22;14238;49.496;8.154;2023-11-21T08:30:22;8.70;99.90
26595;DHT22;14238;49.496;8.154;2023-11-21T08:32:49;8.70;99.90
26595;DHT22;14238;49.496;8.154;2023-11-21T08:35:16;8.70;99.90
26595;DHT22;14238;49.496;8.154;2023-11-21T08:37:42;8.70;99.90
26595;DHT22;14238;49.496;8.154;2023-11-21T08:40:08;8.70;99.90
26595;DHT22;14238;49.496;8.154;2023-11-21T08:42:35;8.70;99.90
26595;DHT22;14238;49.496;8.154;2023-11-21T08:45:00;8.70;99.90
26595;DHT22;14238;49.496;8.154;2023-11-21T08:47:26;8.70;99.90
26595;DHT22;14238;49.496;8.154;2023-11-21T08:49:52;8.70;99.90
26595;DHT22;14238;49.496;8.154;2023-11-21T08:52:19;8.70;99.90
26595;DHT22;14238;49.496;8.154;2023-11-21T08:54:48;8.70;99.90
26595;DHT22;14238;49.496;8.154;2023-11-21T08:57:14;8.70;99.90
26595;DHT22;14238;49.496;8.154;2023-11-21T08:59:39;8.70;99.90
26595;DHT22;14238;49.496;8.154;2023-11-21T09:02:05;8.70;99.90
26595;DHT22;14238;49.496;8.154;2023-11-21T09:04:31;8.70;99.90
26595;DHT22;14238;49.496;8.154;2023-11-21T09:06:57;8.80;99.90
26595;DHT22;14238;49.496;8.154;2023-11-21T09:09:25;8.80;99.90
26595;DHT22;14238;49.496;8.154;2023-11-21T09:11:50;8.80;99.90
26595;DHT22;14238;49.496;8.154;2023-11-21T09:14:16;8.80;99.90
26595;DHT22;14238;49.496;8.154;2023-11-21T09:16:43;8.70;99.90
26595;DHT22;14238;49.496;8.154;2023-11-21T09:19:09;8.70;99.90
26595;DHT22;14238;49.496;8.154;2023-11-21T09:21:34;8.70;99.90
26595;DHT22;14238;49.496;8.154;2023-11-21T09:24:00;8.70;99.90
26595;DHT22;14238;49.496;8.154;2023-11-21T09:26:25;8.60;99.90
26595;DHT22;14238;49.496;8.154;2023-11-21T09:28:51;8.60;99.90
26595;DHT22;14238;49.496;8.154;2023-11-21T09:31:17;8.60;99.90
26595;DHT22;14238;49.496;8.154;2023-11-21T09:33:45;8.60;99.90
26595;DHT22;14238;49.496;8.154;2023-11-21T09:36:13;8.70;99.90
26595;DHT22;14238;49.496;8.154;2023-11-21T09:38:40;8.70;99.90
26595;DHT22;14238;49.496;8.154;2023-11-21T09:41:11;8.80;99.90
26595;DHT22;14238;49.496;8.154;2023-11-21T09:43:43;8.80;99.90
26595;DHT22;14238;49.496;8.154;2023-11-21T09:46:11;8.80;99.90
26595;DHT22;14238;49.496;8.154;2023-11-21T09:48:42;8.70;99.90
26595;DHT22;14238;49.496;8.154;2023-11-21T09:51:08;8.80;99.90
26595;DHT22;14238;49.496;8.154;2023-11-21T09:53:34;8.80;99.90
26595;DHT22;14238;49.496;8.154;2023-11-21T09:56:00;8.70;99.90
26595;DHT22;14238;49.496;8.154;2023-11-21T09:58:27;8.70;99.90
26595;DHT22;14238;49.496;8.154;2023-11-21T10:00:54;8.70;99.90
26595;DHT22;14238;49.496;8.154;2023-11-21T10:03:21;8.80;99.90
26595;DHT22;14238;49.496;8.154;2023-11-21T10:05:48;8.80;99.90
26595;DHT22;14238;49.496;8.154;2023-11-21T10:08:15;8.80;99.90
26595;DHT22;14238;49.496;8.154;2023-11-21T10:10:45;8.80;99.90
26595;DHT22;14238;49.496;8.154;2023-11-21T10:13:13;8.80;99.90
26595;DHT22;14238;49.496;8.154;2023-11-21T10:15:42;8.80;99.90
26595;DHT22;14238;49.496;8.154;2023-11-21T10:18:14;8.80;99.90
26595;DHT22;14238;49.496;8.154;2023-11-21T10:20:41;8.80;99.90
26595;DHT22;14238;49.496;8.154;2023-11-21T10:23:08;9.00;99.90
26595;DHT22;14238;49.496;8.154;2023-11-21T10:25:37;8.90;99.90
26595;DHT22;14238;49.496;8.154;2023-11-21T10:28:03;8.90;99.90
26595;DHT22;14238;49.496;8.154;2023-11-21T10:30:37;8.90;99.90
26595;DHT22;14238;49.496;8.154;2023-11-21T10:33:04;8.90;99.90
26595;DHT22;14238;49.496;8.154;2023-11-21T10:35:42;8.90;99.90
26595;DHT22;14238;49.496;8.154;2023-11-21T10:38:08;8.80;99.90
26595;DHT22;14238;49.496;8.154;2023-11-21T10:40:38;8.80;99.90
26595;DHT22;14238;49.496;8.154;2023-11-21T10:43:11;8.80;99.90
26595;DHT22;14238;49.496;8.154;2023-11-21T10:45:38;8.80;99.90
26595;DHT22;14238;49.496;8.154;2023-11-21T10:48:08;8.80;99.90
26595;DHT22;14238;49.496;8.154;2023-11-21T10:50:36;8.70;99.90
26595;DHT22;14238;49.496;8.154;2023-11-21T10:53:02;8.80;99.90
26595;DHT22;14238;49.496;8.154;2023-11-21T10:55:29;8.80;99.90
26595;DHT22;14238;49.496;8.154;2023-11-21T10:57:59;8.80;99.90
26595;DHT22;14238;49.496;8.154;2023-11-21T11:00:26;8.70;99.90
26595;DHT22;14238;49.496;8.154;2023-11-21T11:02:53;8.80;99.90
26595;DHT22;14238;49.496;8.154;2023-11-21T11:05:21;8.80;99.90
26595;DHT22;14238;49.496;8.154;2023-11-21T11:07:50;8.90;99.90
26595;DHT22;14238;49.496;8.154;2023-11-21T11:10:21;9.00;99.90
26595;DHT22;14238;49.496;8.154;2023-11-21T11:12:48;9.00;99.90
26595;DHT22;14238;49.496;8.154;2023-11-21T11:15:16;9.10;99.90
26595;DHT22;14238;49.496;8.154;2023-11-21T11:17:42;9.20;99.90
26595;DHT22;14238;49.496;8.154;2023-11-21T11:20:13;9.20;99.90
26595;DHT22;14238;49.496;8.154;2023-11-21T11:23:12;9.30;99.90
26595;DHT22;14238;49.496;8.154;2023-11-21T11:25:52;9.30;99.90
26595;DHT22;14238;49.496;8.154;2023-11-21T11:28:32;9.40;99.90
26595;DHT22;14238;49.496;8.154;2023-11-21T11:33:50;9.40;99.90
26595;DHT22;14238;49.496;8.154;2023-11-21T11:36:41;9.50;99.90
26595;DHT22;14238;49.496;8.154;2023-11-21T11:39:28;9.60;99.90
26595;DHT22;14238;49.496;8.154;2023-11-21T11:41:58;9.60;99.90
26595;DHT22;14238;49.496;8.154;2023-11-21T11:47:32;9.50;99.90
26595;DHT22;14238;49.496;8.154;2023-11-21T11:50:10;9.60;99.90
26595;DHT22;14238;49.496;8.154;2023-11-21T11:52:43;9.70;99.90
26595;DHT22;14238;49.496;8.154;2023-11-21T11:55:14;9.70;99.90
26595;DHT22;14238;49.496;8.154;2023-11-21T11:57:44;9.70;99.90
26595;DHT22;14238;49.496;8.154;2023-11-21T12:00:42;9.70;99.90
26595;DHT22;14238;49.496;8.154;2023-11-21T12:03:09;9.80;99.90
26595;DHT22;14238;49.496;8.154;2023-11-21T12:05:35;9.80;99.90
26595;DHT22;14238;49.496;8.154;2023-11-21T12:08:05;9.80;99.90
26595;DHT22;14238;49.496;8.154;2023-11-21T12:10:36;9.80;99.90
26595;DHT22;14238;49.496;8.154;2023-11-21T12:13:05;10.00;99.90
26595;DHT22;14238;49.496;8.154;2023-11-21T12:15:35;10.00;99.90
26595;DHT22;14238;49.496;8.154;2023-11-21T12:18:02;10.10;99.90
26595;DHT22;14238;49.496;8.154;2023-11-21T12:20:28;10.10;99.90
26595;DHT22;14238;49.496;8.154;2023-11-21T12:22:55;10.10;99.90
26595;DHT22;14238;49.496;8.154;2023-11-21T12:25:23;10.20;99.90
26595;DHT22;14238;49.496;8.154;2023-11-21T12:27:52;10.30;99.90
26595;DHT22;14238;49.496;8.154;2023-11-21T12:30:20;10.40;99.90
26595;DHT22;14238;49.496;8.154;2023-11-21T12:32:54;10.60;99.90
26595;DHT22;14238;49.496;8.154;2023-11-21T12:35:31;11.10;99.90
26595;DHT22;14238;49.496;8.154;2023-11-21T12:38:00;11.50;99.90
26595;DHT22;14238;49.496;8.154;2023-11-21T12:40:28;11.30;99.90
26595;DHT22;14238;49.496;8.154;2023-11-21T12:42:56;11.30;99.90
26595;DHT22;14238;49.496;8.154;2023-11-21T12:45:24;11.40;99.90
26595;DHT22;14238;49.496;8.154;2023-11-21T12:47:56;11.60;99.90
26595;DHT22;14238;49.496;8.154;2023-11-21T12:50:25;11.70;99.90
26595;DHT22;14238;49.496;8.154;2023-11-21T12:52:58;11.90;99.90
26595;DHT22;14238;49.496;8.154;2023-11-21T12:55:24;11.80;99.90
26595;DHT22;14238;49.496;8.154;2023-11-21T12:57:52;11.80;99.90
26595;DHT22;14238;49.496;8.154;2023-11-21T13:00:20;11.60;99.90
26595;DHT22;14238;49.496;8.154;2023-11-21T13:02:56;11.50;99.90
26595;DHT22;14238;49.496;8.154;2023-11-21T13:05:29;11.70;99.90
26595;DHT22;14238;49.496;8.154;2023-11-21T13:07:57;11.70;99.90
26595;DHT22;14238;49.496;8.154;2023-11-21T13:10:27;11.60;99.90
26595;DHT22;14238;49.496;8.154;2023-11-21T13:13:00;11.40;99.90
26595;DHT22;14238;49.496;8.154;2023-11-21T13:15:27;12.10;99.90
26595;DHT22;14238;49.496;8.154;2023-11-21T13:17:54;12.10;99.90
26595;DHT22;14238;49.496;8.154;2023-11-21T13:20:20;11.60;99.90
26595;DHT22;14238;49.496;8.154;2023-11-21T13:23:09;11.70;99.90
26595;DHT22;14238;49.496;8.154;2023-11-21T13:25:37;12.10;99.90
26595;DHT22;14238;49.496;8.154;2023-11-21T13:28:04;12.10;99.90
26595;DHT22;14238;49.496;8.154;2023-11-21T13:30:30;12.90;99.90
26595;DHT22;14238;49.496;8.154;2023-11-21T13:33:03;13.80;99.90
26595;DHT22;14238;49.496;8.154;2023-11-21T13:35:36;14.60;99.90
26595;DHT22;14238;49.496;8.154;2023-11-21T13:38:11;15.40;99.90
26595;DHT22;14238;49.496;8.154;2023-11-21T13:40:41;14.60;99.90
26595;DHT22;14238;49.496;8.154;2023-11-21T13:43:12;13.80;99.90
26595;DHT22;14238;49.496;8.154;2023-11-21T13:45:38;13.30;99.90
26595;DHT22;14238;49.496;8.154;2023-11-21T13:48:08;12.40;99.90
26595;DHT22;14238;49.496;8.154;2023-11-21T13:50:46;11.90;99.90
26595;DHT22;14238;49.496;8.154;2023-11-21T13:53:21;11.50;99.90
26595;DHT22;14238;49.496;8.154;2023-11-21T13:55:51;11.30;99.90
26595;DHT22;14238;49.496;8.154;2023-11-21T13:58:20;11.10;99.90
26595;DHT22;14238;49.496;8.154;2023-11-21T14:00:51;10.90;99.90
26595;DHT22;14238;49.496;8.154;2023-11-21T14:03:23;10.80;99.90
26595;DHT22;14238;49.496;8.154;2023-11-21T14:05:57;10.60;99.90
26595;DHT22;14238;49.496;8.154;2023-11-21T14:08:23;10.50;99.90
26595;DHT22;14238;49.496;8.154;2023-11-21T14:10:57;10.60;99.90
26595;DHT22;14238;49.496;8.154;2023-11-21T14:13:25;10.70;99.90
26595;DHT22;14238;49.496;8.154;2023-11-21T14:15:51;10.70;99.90
26595;DHT22;14238;49.496;8.154;2023-11-21T14:18:23;10.60;99.90
26595;DHT22;14238;49.496;8.154;2023-11-21T14:20:52;10.50;99.90
26595;DHT22;14238;49.496;8.154;2023-11-21T14:23:18;10.60;99.90
26595;DHT22;14238;49.496;8.154;2023-11-21T14:25:44;10.50;99.90
26595;DHT22;14238;49.496;8.154;2023-11-21T14:28:10;10.50;99.90
26595;DHT22;14238;49.496;8.154;2023-11-21T14:30:37;10.50;99.90
26595;DHT22;14238;49.496;8.154;2023-11-21T14:33:05;10.60;99.90
26595;DHT22;14238;49.496;8.154;2023-11-21T14:35:31;10.50;99.90
26595;DHT22;14238;49.496;8.154;2023-11-21T14:37:58;10.40;99.90
26595;DHT22;14238;49.496;8.154;2023-11-21T14:40:24;10.30;99.90
26595;DHT22;14238;49.496;8.154;2023-11-21T14:42:51;10.30;99.90
26595;DHT22;14238;49.496;8.154;2023-11-21T14:45:19;10.20;99.90
26595;DHT22;14238;49.496;8.154;2023-11-21T14:47:48;10.10;99.90
26595;DHT22;14238;49.496;8.154;2023-11-21T14:50:41;10.10;99.90
26595;DHT22;14238;49.496;8.154;2023-11-21T14:53:08;9.90;99.90
26595;DHT22;14238;49.496;8.154;2023-11-21T14:55:37;9.80;99.90
26595;DHT22;14238;49.496;8.154;2023-11-21T14:58:08;9.80;99.90
26595;DHT22;14238;49.496;8.154;2023-11-21T15:00:39;9.70;99.90
26595;DHT22;14238;49.496;8.154;2023-11-21T15:03:12;9.70;99.90
26595;DHT22;14238;49.496;8.154;2023-11-21T15:06:00;9.70;99.90
26595;DHT22;14238;49.496;8.154;2023-11-21T15:08:50;9.60;99.90
26595;DHT22;14238;49.496;8.154;2023-11-21T15:11:35;9.60;99.90
26595;DHT22;14238;49.496;8.154;2023-11-21T15:14:03;9.60;99.90
26595;DHT22;14238;49.496;8.154;2023-11-21T15:16:35;9.50;99.90
26595;DHT22;14238;49.496;8.154;2023-11-21T15:19:05;9.50;99.90
26595;DHT22;14238;49.496;8.154;2023-11-21T15:21:31;9.50;99.90
26595;DHT22;14238;49.496;8.154;2023-11-21T15:23:58;9.50;99.90
26595;DHT22;14238;49.496;8.154;2023-11-21T15:26:23;9.50;99.90
26595;DHT22;14238;49.496;8.154;2023-11-21T15:28:49;9.40;99.90
26595;DHT22;14238;49.496;8.154;2023-11-21T15:31:14;9.40;99.90
26595;DHT22;14238;49.496;8.154;2023-11-21T15:33:42;9.40;99.90
26595;DHT22;14238;49.496;8.154;2023-11-21T15:36:08;9.40;99.90
26595;DHT22;14238;49.496;8.154;2023-11-21T15:38:36;9.40;99.90
26595;DHT22;14238;49.496;8.154;2023-11-21T15:41:03;9.40;99.90
26595;DHT22;14238;49.496;8.154;2023-11-21T15:43:28;9.20;99.90
26595;DHT22;14238;49.496;8.154;2023-11-21T15:45:54;9.20;99.90
26595;DHT22;14238;49.496;8.154;2023-11-21T15:48:21;9.10;99.90
26595;DHT22;14238;49.496;8.154;2023-11-21T15:50:46;9.00;99.90
26595;DHT22;14238;49.496;8.154;2023-11-21T15:53:13;9.00;99.90